Forside
METAR-TAF:

METAR-TAF

Lufthavne :

Port Macquarie, Australien

Breddekreds: 31-26-09S, længdekreds: 152-51-48E, højde: 5 m

Aktuelle vejr

Denne rapport blev lavet for 11 timer og 5 minutter siden, kl. 06:30 UTC
Vind 17 kt fra syd med vindstød på up til 27 kt
Temperatur 24°C
Fugtighed 57%
Tryk 1019 hPa
Sigt 10 km eller mere
Overskyet i en højde af 7100 ft

METAR: YPMQ 230630Z AUTO 19017G27KT 9999 // OVC071 24/15 Q1019

Tid: 04:35 (17:35 UTC)


TAF: fraværende

Vejrobservationer og prognoser fra mere end 4000 lufthavne (METAR og TAF).

De gule og røde prikker repræsenterer de meteorologiske stationer.

Flyt musen over at se navnet på stationen.

Så klik over at se vejr observationer og prognoser.

At skifte det kort: Klik på de grønne knapper med et sort kors for at zoome ind; på den grønne knap med en bindestreg for at zoome ud; eller på de grønne pile for tilstødende kort.


METAR-TAF: